Time;durP1;ratioP1;P1;durP2;ratioP2;P2;SDS_P1;SDS_P2;PMS_P1;PMS_P2;Temp;Humidity;BMP_temperature;BMP_pressure;BME280_temperature;BME280_humidity;BME280_pressure;Samples;Min_cycle;Max_cycle;Signal;HPM_P1;HPM_P2
2022/01/03 00:35:10;;;;;;;10.77;5.30;;;;;;;;;;6163206;23;20367;-93
2022/01/03 00:38:16;;;;;;;10.50;5.40;;;;;;;;;;6185267;23;20627;-93
2022/01/03 00:41:23;;;;;;;9.57;5.20;;;;;;;;;;6185855;23;20203;-92
2022/01/03 00:44:29;;;;;;;10.90;5.33;;;;;;;;;;6185283;23;20628;-92
2022/01/03 00:47:38;;;;;;;10.73;4.70;;;;;;;;;;6187932;23;20188;-93
2022/01/03 00:50:50;;;;;;;8.43;4.67;;;;;;;;;;6186720;23;20268;-90
2022/01/03 00:57:37;;;;;;;10.17;4.47;;;;;;;;;;6146908;23;20173;-90
2022/01/03 01:00:45;;;;;;;9.20;4.93;;;;;;;;;;6131147;23;20161;-91
2022/01/03 01:15:44;;;;;;;8.10;4.70;;;;;;;;;;6178603;23;20235;-91
2022/01/03 01:18:51;;;;;;;7.60;4.23;;;;;;;;;;6186221;23;20171;-93
2022/01/03 01:21:57;;;;;;;9.40;5.23;;;;;;;;;;6185467;23;20213;-91
2022/01/03 01:28:29;;;;;;;9.10;5.00;;;;;;;;;;6188834;23;20172;-92
2022/01/03 01:31:37;;;;;;;8.27;4.53;;;;;;;;;;6187471;23;20215;-91
2022/01/03 01:34:45;;;;;;;7.47;4.47;;;;;;;;;;6186896;23;20168;-92
2022/01/03 01:37:55;;;;;;;7.37;4.30;;;;;;;;;;6187351;23;20164;-92
2022/01/03 01:41:02;;;;;;;7.20;4.20;;;;;;;;;;6187189;23;20168;-92
2022/01/03 01:44:12;;;;;;;7.47;4.33;;;;;;;;;;6187306;23;20164;-91
2022/01/03 01:47:22;;;;;;;9.83;4.73;;;;;;;;;;6188872;23;20195;-91
2022/01/03 01:50:29;;;;;;;8.57;4.60;;;;;;;;;;6188212;23;20273;-93
2022/01/03 01:53:40;;;;;;;7.00;3.97;;;;;;;;;;6187935;23;20156;-92
2022/01/03 01:56:51;;;;;;;8.70;4.57;;;;;;;;;;6188199;23;20217;-92
2022/01/03 02:00:04;;;;;;;8.87;4.43;;;;;;;;;;6188105;23;20176;-93
2022/01/03 02:03:27;;;;;;;9.10;4.90;;;;;;;;;;6205703;23;20239;-93
2022/01/03 02:06:45;;;;;;;7.43;4.37;;;;;;;;;;6189556;23;20207;-91
2022/01/03 02:09:54;;;;;;;6.83;4.40;;;;;;;;;;6189550;23;20152;-92
2022/01/03 02:13:00;;;;;;;8.10;4.47;;;;;;;;;;6189651;23;20184;-93
2022/01/03 02:16:09;;;;;;;6.83;4.00;;;;;;;;;;6174916;23;20192;-92
2022/01/03 02:19:22;;;;;;;8.27;4.03;;;;;;;;;;6174648;23;20202;-91
2022/01/03 02:22:31;;;;;;;6.73;4.00;;;;;;;;;;6175135;23;20176;-92
2022/01/03 02:25:43;;;;;;;8.47;4.40;;;;;;;;;;6173812;23;20165;-92
2022/01/03 02:28:48;;;;;;;7.93;4.40;;;;;;;;;;6174094;23;20251;-92
2022/01/03 02:31:54;;;;;;;6.77;4.20;;;;;;;;;;6176690;23;20193;-91
2022/01/03 02:35:00;;;;;;;8.27;4.20;;;;;;;;;;6175381;23;20176;-91
2022/01/03 02:38:11;;;;;;;8.97;4.30;;;;;;;;;;6138978;23;21353;-91
2022/01/03 02:41:17;;;;;;;7.73;4.50;;;;;;;;;;6157782;23;20189;-92
2022/01/03 02:44:23;;;;;;;8.83;4.50;;;;;;;;;;6158929;23;20151;-91
2022/01/03 02:47:28;;;;;;;9.43;5.23;;;;;;;;;;6159221;23;20245;-91
2022/01/03 02:50:39;;;;;;;8.77;4.00;;;;;;;;;;6158482;23;20165;-92
2022/01/03 02:53:47;;;;;;;7.57;4.43;;;;;;;;;;6158885;23;20193;-90
2022/01/03 02:56:53;;;;;;;9.10;5.10;;;;;;;;;;6157044;23;20172;-91
2022/01/03 02:59:59;;;;;;;8.13;4.33;;;;;;;;;;6156841;23;20181;-91
2022/01/03 03:03:06;;;;;;;7.93;4.33;;;;;;;;;;6133956;23;20177;-90
2022/01/03 03:06:12;;;;;;;11.27;4.30;;;;;;;;;;6156214;23;20169;-91
2022/01/03 03:09:21;;;;;;;6.50;3.90;;;;;;;;;;6159460;23;20224;-91
2022/01/03 03:12:27;;;;;;;7.27;4.30;;;;;;;;;;6154843;23;20164;-91
2022/01/03 03:15:34;;;;;;;8.77;4.87;;;;;;;;;;6157602;23;20160;-91
2022/01/03 03:18:44;;;;;;;6.20;3.67;;;;;;;;;;6157156;23;20231;-92
2022/01/03 03:21:49;;;;;;;7.30;4.10;;;;;;;;;;6155646;23;20149;-92
2022/01/03 03:25:02;;;;;;;7.37;4.40;;;;;;;;;;6157067;23;20217;-91
2022/01/03 03:28:09;;;;;;;6.57;3.90;;;;;;;;;;6156825;23;20192;-91
2022/01/03 03:31:14;;;;;;;7.13;3.93;;;;;;;;;;6156822;23;20213;-91
2022/01/03 03:34:22;;;;;;;7.17;4.07;;;;;;;;;;6154784;23;20164;-90
2022/01/03 03:37:27;;;;;;;9.63;5.17;;;;;;;;;;6157788;23;20175;-91
2022/01/03 03:40:35;;;;;;;6.53;4.17;;;;;;;;;;6144614;23;20180;-91
2022/01/03 03:43:40;;;;;;;7.83;4.27;;;;;;;;;;6128601;23;20181;-92
2022/01/03 03:46:48;;;;;;;7.37;4.40;;;;;;;;;;6128194;23;20216;-91
2022/01/03 03:49:53;;;;;;;9.10;4.37;;;;;;;;;;6129508;23;20209;-91
2022/01/03 03:53:00;;;;;;;7.33;4.27;;;;;;;;;;6128517;23;20169;-91
2022/01/03 03:56:07;;;;;;;6.80;4.20;;;;;;;;;;6128621;23;20165;-92
2022/01/03 03:59:14;;;;;;;9.93;4.43;;;;;;;;;;6127392;23;20224;-93
2022/01/03 04:02:19;;;;;;;6.27;4.20;;;;;;;;;;6128957;23;20213;-90
2022/01/03 04:05:24;;;;;;;8.03;4.50;;;;;;;;;;6127577;23;20621;-91
2022/01/03 04:08:30;;;;;;;7.50;4.03;;;;;;;;;;6129209;23;20213;-93
2022/01/03 04:11:37;;;;;;;8.17;4.70;;;;;;;;;;6130327;23;20225;-91
2022/01/03 04:14:52;;;;;;;9.27;4.60;;;;;;;;;;6127801;23;20249;-92
2022/01/03 04:17:57;;;;;;;6.97;4.50;;;;;;;;;;6128444;23;20250;-91
2022/01/03 04:21:02;;;;;;;6.57;4.50;;;;;;;;;;6125573;23;20165;-91
2022/01/03 04:24:09;;;;;;;6.73;4.40;;;;;;;;;;6124643;23;20173;-92
2022/01/03 04:27:17;;;;;;;8.50;4.60;;;;;;;;;;6125227;23;20189;-92
2022/01/03 04:30:23;;;;;;;8.50;4.47;;;;;;;;;;6126631;23;20165;-91
2022/01/03 04:33:28;;;;;;;12.63;4.90;;;;;;;;;;6128599;23;20165;-91
2022/01/03 04:36:33;;;;;;;8.83;4.70;;;;;;;;;;6127736;23;20185;-92
2022/01/03 04:39:39;;;;;;;9.37;5.10;;;;;;;;;;6155650;23;20205;-91
2022/01/03 04:42:45;;;;;;;8.13;4.83;;;;;;;;;;6174015;23;20168;-91
2022/01/03 04:45:51;;;;;;;8.27;4.47;;;;;;;;;;6175010;23;20160;-92
2022/01/03 04:48:56;;;;;;;10.07;4.70;;;;;;;;;;6174122;23;20200;-92
2022/01/03 04:52:02;;;;;;;13.50;4.80;;;;;;;;;;6175203;23;20168;-91
2022/01/03 04:55:09;;;;;;;9.07;4.57;;;;;;;;;;6173632;23;20160;-91
2022/01/03 04:58:16;;;;;;;7.80;4.53;;;;;;;;;;6174311;23;20169;-92
2022/01/03 05:01:26;;;;;;;9.67;4.83;;;;;;;;;;6172056;23;20172;-90
2022/01/03 05:04:31;;;;;;;12.53;4.33;;;;;;;;;;6174324;23;20148;-91
2022/01/03 05:07:38;;;;;;;10.43;4.60;;;;;;;;;;6175410;23;20237;-91
2022/01/03 05:10:44;;;;;;;8.77;4.80;;;;;;;;;;6173335;23;20172;-92
2022/01/03 05:17:45;;;;;;;7.90;3.70;;;;;;;;;;6174214;23;20213;-91
2022/01/03 05:20:50;;;;;;;5.87;2.57;;;;;;;;;;6174453;23;20169;-91
2022/01/03 05:23:57;;;;;;;6.67;2.57;;;;;;;;;;6174492;23;20173;-92
2022/01/03 05:27:02;;;;;;;5.40;2.37;;;;;;;;;;6177250;23;20160;-92
2022/01/03 05:30:08;;;;;;;8.73;2.20;;;;;;;;;;6174383;23;20494;-91
2022/01/03 05:33:15;;;;;;;5.80;2.10;;;;;;;;;;6174553;23;20165;-92
2022/01/03 05:36:20;;;;;;;4.57;1.63;;;;;;;;;;6175596;23;20169;-91
2022/01/03 05:39:25;;;;;;;5.53;2.00;;;;;;;;;;6174585;23;20196;-90
2022/01/03 05:42:31;;;;;;;3.77;1.67;;;;;;;;;;6176624;23;20151;-91
2022/01/03 05:45:37;;;;;;;5.57;1.50;;;;;;;;;;6175681;23;20503;-91
2022/01/03 05:48:45;;;;;;;2.80;1.37;;;;;;;;;;6175753;23;20220;-91
2022/01/03 05:51:51;;;;;;;2.53;1.07;;;;;;;;;;6173258;23;20491;-91
2022/01/03 05:54:56;;;;;;;4.20;1.20;;;;;;;;;;6175510;23;20156;-91
2022/01/03 05:58:01;;;;;;;2.60;1.20;;;;;;;;;;6176080;23;20226;-92
2022/01/03 06:01:10;;;;;;;2.33;0.97;;;;;;;;;;6174596;23;20168;-91
2022/01/03 06:04:22;;;;;;;3.20;1.30;;;;;;;;;;6175530;23;20161;-91
2022/01/03 06:07:28;;;;;;;3.83;1.20;;;;;;;;;;6173776;23;20548;-91
2022/01/03 06:10:34;;;;;;;3.33;1.33;;;;;;;;;;6174824;23;20177;-92
2022/01/03 06:13:58;;;;;;;4.20;1.20;;;;;;;;;;6175327;23;20173;-92
2022/01/03 06:17:05;;;;;;;2.43;1.30;;;;;;;;;;6175244;23;20238;-91
2022/01/03 06:20:13;;;;;;;3.27;1.60;;;;;;;;;;6174206;23;20250;-93
2022/01/03 06:23:20;;;;;;;5.60;1.33;;;;;;;;;;6174918;23;20277;-92
2022/01/03 06:26:25;;;;;;;2.83;1.13;;;;;;;;;;6174109;23;20165;-92
2022/01/03 06:29:32;;;;;;;4.37;1.00;;;;;;;;;;6175596;23;20192;-91
2022/01/03 06:32:37;;;;;;;9.50;1.53;;;;;;;;;;6177725;23;20232;-92
2022/01/03 06:35:46;;;;;;;3.00;1.17;;;;;;;;;;6176115;23;20165;-91
2022/01/03 06:38:53;;;;;;;2.80;1.10;;;;;;;;;;6176866;23;20196;-92
2022/01/03 06:42:01;;;;;;;3.23;1.00;;;;;;;;;;6158266;23;20210;-93
2022/01/03 06:54:42;;;;;;;6.53;2.90;;;;;;;;;;6147717;23;20254;-91
2022/01/03 06:57:50;;;;;;;2.33;1.57;;;;;;;;;;6146482;23;20193;-90
2022/01/03 07:00:56;;;;;;;3.97;1.50;;;;;;;;;;6144202;23;20165;-89
2022/01/03 07:04:01;;;;;;;2.23;0.93;;;;;;;;;;6143379;23;20165;-91
2022/01/03 07:07:07;;;;;;;5.87;1.70;;;;;;;;;;6143281;23;20186;-91
2022/01/03 07:10:18;;;;;;;6.07;1.20;;;;;;;;;;6145353;23;20225;-93
2022/01/03 07:13:31;;;;;;;2.80;1.27;;;;;;;;;;6147639;23;20158;-91
2022/01/03 07:20:01;;;;;;;5.70;1.40;;;;;;;;;;6148118;23;20202;-92
2022/01/03 07:23:06;;;;;;;2.17;1.13;;;;;;;;;;6149247;23;20148;-92
2022/01/03 07:26:20;;;;;;;4.10;1.10;;;;;;;;;;6148022;23;20176;-91
2022/01/03 07:29:25;;;;;;;3.10;1.00;;;;;;;;;;6130306;23;20196;-93
2022/01/03 07:32:31;;;;;;;4.00;0.97;;;;;;;;;;6146137;23;20169;-92
2022/01/03 07:35:36;;;;;;;8.13;1.10;;;;;;;;;;6130509;23;20241;-92
2022/01/03 07:38:46;;;;;;;2.50;1.13;;;;;;;;;;6129574;23;20213;-94
2022/01/03 07:41:53;;;;;;;2.37;1.10;;;;;;;;;;6146788;23;20157;-93
2022/01/03 07:44:59;;;;;;;3.67;1.20;;;;;;;;;;6146615;23;20148;-92
2022/01/03 07:48:04;;;;;;;1.77;1.13;;;;;;;;;;6146472;23;20176;-92
2022/01/03 07:51:10;;;;;;;4.47;1.20;;;;;;;;;;6146626;23;20173;-92
2022/01/03 07:54:16;;;;;;;3.20;1.10;;;;;;;;;;6146423;23;20173;-91
2022/01/03 07:57:23;;;;;;;4.47;1.37;;;;;;;;;;6147697;23;20208;-92
2022/01/03 08:00:29;;;;;;;4.27;1.93;;;;;;;;;;6146439;23;20169;-92
2022/01/03 08:03:38;;;;;;;3.83;1.50;;;;;;;;;;6146011;23;20169;-92
2022/01/03 08:06:45;;;;;;;2.07;0.90;;;;;;;;;;6128141;23;20168;-91
2022/01/03 08:09:51;;;;;;;3.30;1.20;;;;;;;;;;6144617;23;20205;-92
2022/01/03 08:13:05;;;;;;;4.40;1.40;;;;;;;;;;6142789;23;20192;-91
2022/01/03 08:16:11;;;;;;;3.37;1.10;;;;;;;;;;6143125;23;20165;-92
2022/01/03 08:19:17;;;;;;;9.87;1.77;;;;;;;;;;6142151;23;20181;-91
2022/01/03 08:22:22;;;;;;;6.43;1.50;;;;;;;;;;6143402;23;20169;-91
2022/01/03 08:25:33;;;;;;;5.37;2.00;;;;;;;;;;6142111;23;20173;-92
2022/01/03 08:28:40;;;;;;;4.37;1.70;;;;;;;;;;6141012;23;20185;-92
2022/01/03 08:31:46;;;;;;;5.73;2.20;;;;;;;;;;6144163;23;20210;-92
2022/01/03 08:34:51;;;;;;;6.27;2.27;;;;;;;;;;6125276;23;20256;-92
2022/01/03 08:37:57;;;;;;;4.97;2.03;;;;;;;;;;6142956;23;20172;-91
2022/01/03 08:41:02;;;;;;;7.23;2.23;;;;;;;;;;6144007;23;20165;-91
2022/01/03 08:44:09;;;;;;;4.60;2.00;;;;;;;;;;6142147;23;20172;-90
2022/01/03 08:47:14;;;;;;;5.40;2.03;;;;;;;;;;6140834;23;20212;-91
2022/01/03 08:50:19;;;;;;;4.33;2.00;;;;;;;;;;6144892;23;20178;-92
2022/01/03 08:53:27;;;;;;;10.23;2.43;;;;;;;;;;6130448;23;20189;-91
2022/01/03 08:56:32;;;;;;;3.33;1.80;;;;;;;;;;6131060;23;20163;-92
2022/01/03 08:59:39;;;;;;;5.53;2.10;;;;;;;;;;6133253;23;20173;-90
2022/01/03 09:02:50;;;;;;;4.83;1.87;;;;;;;;;;6134312;23;20174;-92
2022/01/03 09:05:56;;;;;;;5.27;1.43;;;;;;;;;;6131614;23;20173;-89
2022/01/03 09:09:02;;;;;;;4.87;1.93;;;;;;;;;;6132467;23;20189;-89
2022/01/03 09:12:17;;;;;;;5.80;2.17;;;;;;;;;;6131904;23;20217;-92
2022/01/03 09:15:24;;;;;;;4.30;2.47;;;;;;;;;;6132716;23;20227;-92
2022/01/03 09:18:29;;;;;;;5.83;2.90;;;;;;;;;;6134248;23;20181;-93
2022/01/03 09:21:35;;;;;;;13.80;5.77;;;;;;;;;;6133633;23;20162;-91
2022/01/03 09:30:21;;;;;;;8.37;4.20;;;;;;;;;;6152833;23;20470;-92
2022/01/03 09:33:28;;;;;;;9.67;3.50;;;;;;;;;;6158606;23;20188;-92
2022/01/03 09:36:33;;;;;;;6.15;1.70;;;;;;;;;;6160393;23;20208;-93
2022/01/03 09:39:39;;;;;;;6.70;1.40;;;;;;;;;;6159449;23;20180;-93
2022/01/03 09:42:45;;;;;;;7.43;2.20;;;;;;;;;;6159033;23;20495;-92
2022/01/03 09:45:50;;;;;;;2.95;2.05;;;;;;;;;;6156747;23;20189;-93
2022/01/03 09:48:57;;;;;;;7.00;2.37;;;;;;;;;;6158072;23;20236;-93
2022/01/03 09:52:03;;;;;;;8.93;2.33;;;;;;;;;;6159911;23;20237;-93
2022/01/03 09:55:11;;;;;;;7.10;2.45;;;;;;;;;;6160232;23;20168;-94
2022/01/03 09:58:18;;;;;;;6.97;2.33;;;;;;;;;;6159263;23;20159;-92
2022/01/03 11:23:34;;;;;;;7.60;2.17;;;;;;;;;;6173309;23;20656;-92
2022/01/03 11:26:46;;;;;;;4.43;1.60;;;;;;;;;;6184004;23;20171;-91
2022/01/03 11:29:52;;;;;;;2.85;1.48;;;;;;;;;;6184977;23;20196;-91
2022/01/03 11:33:00;;;;;;;4.75;1.67;;;;;;;;;;6184651;23;20612;-92
2022/01/03 11:36:06;;;;;;;4.47;1.65;;;;;;;;;;6188578;23;20148;-91
2022/01/03 11:39:15;;;;;;;6.47;1.98;;;;;;;;;;6188938;23;20344;-91
2022/01/03 11:42:22;;;;;;;4.40;1.70;;;;;;;;;;6185431;23;20168;-92
2022/01/03 12:03:44;;;;;;;5.82;2.45;;;;;;;;;;6116457;23;20197;-93
2022/01/03 12:06:50;;;;;;;5.20;2.30;;;;;;;;;;6098726;23;20260;-93
2022/01/03 12:10:07;;;;;;;4.88;2.10;;;;;;;;;;6117492;23;20205;-93
2022/01/03 12:13:12;;;;;;;4.85;2.28;;;;;;;;;;6098551;23;20158;-92
2022/01/03 12:16:18;;;;;;;5.72;2.40;;;;;;;;;;6115858;23;20162;-92
2022/01/03 12:19:32;;;;;;;7.75;1.75;;;;;;;;;;6117431;23;20160;-91
2022/01/03 12:22:48;;;;;;;11.87;3.23;;;;;;;;;;6115737;23;20173;-91
2022/01/03 12:26:08;;;;;;;16.50;3.57;;;;;;;;;;6118209;23;20185;-93
2022/01/03 12:29:14;;;;;;;13.47;2.70;;;;;;;;;;6114250;23;20237;-92
2022/01/03 12:32:20;;;;;;;6.67;2.00;;;;;;;;;;6111192;23;20206;-93
2022/01/03 12:35:27;;;;;;;13.27;3.07;;;;;;;;;;6096028;23;20175;-92
2022/01/03 12:38:33;;;;;;;13.17;3.03;;;;;;;;;;6114451;23;20638;-91
2022/01/03 12:41:49;;;;;;;9.37;2.57;;;;;;;;;;6112652;23;20169;-92
2022/01/03 12:44:56;;;;;;;8.07;2.40;;;;;;;;;;6113197;23;20186;-92
2022/01/03 12:48:18;;;;;;;11.23;3.23;;;;;;;;;;6113351;23;20202;-91
2022/01/03 12:51:34;;;;;;;8.93;3.43;;;;;;;;;;6111341;23;20178;-92
2022/01/03 12:54:43;;;;;;;7.23;2.90;;;;;;;;;;6095836;23;20174;-91
2022/01/03 12:57:49;;;;;;;8.87;2.60;;;;;;;;;;6113973;23;20188;-92
2022/01/03 13:00:56;;;;;;;9.20;2.60;;;;;;;;;;6114819;23;20193;-93
2022/01/03 13:04:04;;;;;;;6.30;2.20;;;;;;;;;;6117933;23;20170;-93
2022/01/03 13:07:11;;;;;;;14.85;4.57;;;;;;;;;;6116432;23;20219;-92
2022/01/03 13:10:18;;;;;;;8.97;3.97;;;;;;;;;;6099957;23;20205;-93
2022/01/03 13:14:05;;;;;;;9.00;3.17;;;;;;;;;;6116311;23;20154;-92
2022/01/03 13:17:12;;;;;;;9.00;3.42;;;;;;;;;;6099051;23;20166;-91
2022/01/03 13:23:39;;;;;;;7.33;2.80;;;;;;;;;;6132779;23;20227;-93
2022/01/03 13:26:52;;;;;;;9.70;3.60;;;;;;;;;;6100026;23;20170;-92
2022/01/03 13:29:58;;;;;;;11.00;3.33;;;;;;;;;;6115940;23;20205;-90
2022/01/03 13:33:04;;;;;;;8.13;3.80;;;;;;;;;;6115355;23;20169;-93
2022/01/03 13:36:15;;;;;;;6.82;3.03;;;;;;;;;;6117939;23;20218;-92
2022/01/03 13:39:23;;;;;;;16.17;5.75;;;;;;;;;;6117535;23;20173;-92
2022/01/03 13:42:37;;;;;;;21.10;7.97;;;;;;;;;;6100402;23;20174;-92
2022/01/03 13:49:21;;;;;;;6.93;3.00;;;;;;;;;;6046728;23;20230;-92
2022/01/03 13:52:31;;;;;;;10.17;3.07;;;;;;;;;;6132419;23;20219;-91
2022/01/03 13:55:41;;;;;;;12.68;4.47;;;;;;;;;;6116999;23;20212;-91
2022/01/03 13:58:47;;;;;;;8.90;4.53;;;;;;;;;;6099284;23;20181;-92
2022/01/03 14:01:53;;;;;;;9.35;4.15;;;;;;;;;;6132457;23;20197;-91
2022/01/03 14:04:59;;;;;;;14.97;4.60;;;;;;;;;;6117262;23;20173;-91
2022/01/03 14:08:06;;;;;;;5.65;2.50;;;;;;;;;;6116463;23;20170;-90
2022/01/03 14:11:15;;;;;;;8.63;3.53;;;;;;;;;;6118072;23;20242;-91
2022/01/03 14:14:22;;;;;;;9.55;4.00;;;;;;;;;;6132976;23;20197;-91
2022/01/03 14:17:28;;;;;;;58.95;22.67;;;;;;;;;;6100307;23;20215;-91
2022/01/03 14:20:34;;;;;;;18.73;6.70;;;;;;;;;;6119186;23;20273;-91
2022/01/03 14:23:46;;;;;;;14.80;6.05;;;;;;;;;;6119842;23;20190;-90
2022/01/03 14:26:58;;;;;;;9.73;4.15;;;;;;;;;;6103240;23;20181;-92
2022/01/03 14:30:14;;;;;;;11.82;4.18;;;;;;;;;;6101173;23;20292;-92
2022/01/03 14:33:28;;;;;;;9.97;4.00;;;;;;;;;;6102058;23;20243;-90
2022/01/03 14:36:39;;;;;;;15.98;5.70;;;;;;;;;;6100522;23;20278;-91
2022/01/03 14:39:50;;;;;;;10.97;4.30;;;;;;;;;;6103434;23;20161;-91
2022/01/03 14:42:58;;;;;;;16.97;7.33;;;;;;;;;;6101317;23;20210;-90
2022/01/03 16:35:29;;;;;;;16.97;8.27;;;;;;;;;;6105901;23;20178;-91
2022/01/03 16:38:37;;;;;;;22.40;9.80;;;;;;;;;;6123253;23;20203;-92
2022/01/03 20:39:25;;;;;;;30.83;13.93;;;;;;;;;;6129578;23;20789;-90
2022/01/03 20:42:30;;;;;;;29.63;13.63;;;;;;;;;;6186190;23;20147;-90
2022/01/03 20:45:36;;;;;;;36.73;15.53;;;;;;;;;;6187858;23;20191;-91
2022/01/03 20:48:41;;;;;;;31.13;15.87;;;;;;;;;;6187602;23;20274;-90
2022/01/03 20:51:47;;;;;;;31.90;15.70;;;;;;;;;;6186033;23;20199;-90
2022/01/03 20:54:57;;;;;;;34.10;16.20;;;;;;;;;;6187354;23;20227;-92
2022/01/03 20:58:04;;;;;;;36.13;16.90;;;;;;;;;;6186978;23;20224;-93
2022/01/03 21:01:09;;;;;;;42.13;17.30;;;;;;;;;;6186909;23;20160;-92
2022/01/03 21:04:15;;;;;;;33.37;15.43;;;;;;;;;;6188089;23;20171;-91
2022/01/03 21:07:23;;;;;;;32.13;13.23;;;;;;;;;;6188898;23;20464;-91
2022/01/03 21:10:34;;;;;;;26.37;12.07;;;;;;;;;;6186942;23;20196;-91
2022/01/03 21:13:41;;;;;;;27.93;12.30;;;;;;;;;;6188691;23;20156;-92
2022/01/03 21:16:47;;;;;;;27.23;12.73;;;;;;;;;;6190068;23;20167;-91
2022/01/03 21:19:52;;;;;;;28.13;12.53;;;;;;;;;;6189758;23;20172;-90
2022/01/03 21:22:58;;;;;;;25.37;11.30;;;;;;;;;;6190487;23;20215;-91
2022/01/03 21:26:05;;;;;;;23.87;12.57;;;;;;;;;;6189822;23;20207;-92
2022/01/03 21:29:10;;;;;;;26.97;13.33;;;;;;;;;;6189149;23;20203;-91
2022/01/03 21:32:15;;;;;;;32.03;14.10;;;;;;;;;;6188563;23;20152;-91
2022/01/03 21:35:21;;;;;;;26.03;13.50;;;;;;;;;;6190049;23;20156;-92
2022/01/03 21:53:32;;;;;;;24.20;10.93;;;;;;;;;;6119120;23;20193;-89
2022/01/03 21:56:39;;;;;;;22.70;10.33;;;;;;;;;;6072339;23;20171;-91
2022/01/03 21:59:45;;;;;;;24.00;10.33;;;;;;;;;;6074005;23;20171;-91
2022/01/03 22:02:51;;;;;;;27.90;10.93;;;;;;;;;;6072507;23;20174;-92
2022/01/03 22:06:04;;;;;;;24.10;10.67;;;;;;;;;;6088876;23;20183;-92
2022/01/03 22:09:09;;;;;;;28.00;13.53;;;;;;;;;;6070131;23;20175;-90
2022/01/03 22:12:19;;;;;;;26.97;12.13;;;;;;;;;;6072096;23;20146;-90
2022/01/03 22:15:25;;;;;;;21.30;8.60;;;;;;;;;;6073357;23;20166;-92
2022/01/03 22:18:31;;;;;;;20.20;9.13;;;;;;;;;;6067644;23;20170;-91
2022/01/03 22:21:37;;;;;;;21.30;9.83;;;;;;;;;;6072192;23;20159;-92
2022/01/03 22:24:42;;;;;;;20.27;10.03;;;;;;;;;;6071278;23;20182;-93
2022/01/03 22:27:49;;;;;;;22.77;11.53;;;;;;;;;;6071451;23;20174;-92
2022/01/03 22:30:54;;;;;;;29.17;11.07;;;;;;;;;;6072903;23;20174;-92
2022/01/03 22:34:00;;;;;;;16.83;8.43;;;;;;;;;;6072776;23;20195;-91
2022/01/03 22:37:05;;;;;;;22.23;9.50;;;;;;;;;;6072216;23;20149;-92
2022/01/03 22:40:12;;;;;;;18.03;8.13;;;;;;;;;;6071081;23;20661;-92
2022/01/03 22:43:19;;;;;;;21.80;9.07;;;;;;;;;;6071398;23;20170;-92
2022/01/03 22:46:24;;;;;;;20.20;9.10;;;;;;;;;;6070074;23;20246;-92
2022/01/03 22:49:30;;;;;;;22.30;9.47;;;;;;;;;;6070098;23;20162;-92
2022/01/03 22:52:35;;;;;;;22.20;8.93;;;;;;;;;;6071014;23;20170;-92
2022/01/03 22:55:41;;;;;;;17.97;8.50;;;;;;;;;;6071169;23;20208;-91
2022/01/03 22:58:48;;;;;;;20.97;9.00;;;;;;;;;;6069509;23;20174;-92
2022/01/03 23:01:53;;;;;;;22.63;7.93;;;;;;;;;;6066979;23;20158;-93
2022/01/03 23:04:58;;;;;;;15.37;7.07;;;;;;;;;;6068833;23;20183;-91
2022/01/03 23:08:03;;;;;;;18.73;7.60;;;;;;;;;;6068591;23;20239;-91
2022/01/03 23:11:09;;;;;;;20.30;8.40;;;;;;;;;;6068569;23;20203;-93
2022/01/03 23:14:16;;;;;;;16.03;7.47;;;;;;;;;;6069428;23;20200;-93
2022/01/03 23:17:22;;;;;;;18.33;8.90;;;;;;;;;;6068688;23;20174;-92
2022/01/03 23:20:27;;;;;;;15.83;8.37;;;;;;;;;;6069397;23;20158;-91
2022/01/03 23:23:32;;;;;;;21.37;8.00;;;;;;;;;;6067595;23;20177;-91
2022/01/03 23:26:38;;;;;;;14.27;6.93;;;;;;;;;;6067739;23;20199;-91
2022/01/03 23:29:45;;;;;;;14.93;7.00;;;;;;;;;;6068336;23;20219;-91
2022/01/03 23:32:54;;;;;;;18.90;6.90;;;;;;;;;;6068603;23;20250;-92
2022/01/03 23:36:00;;;;;;;15.13;6.87;;;;;;;;;;6066261;23;20158;-93
2022/01/03 23:39:06;;;;;;;13.20;6.13;;;;;;;;;;6066811;23;20178;-91
2022/01/03 23:42:15;;;;;;;14.00;6.67;;;;;;;;;;6065889;23;20158;-93
2022/01/03 23:45:21;;;;;;;13.20;5.87;;;;;;;;;;6067008;23;20215;-91
2022/01/03 23:48:27;;;;;;;14.90;5.80;;;;;;;;;;6067294;23;20605;-92
2022/01/03 23:51:32;;;;;;;10.70;5.33;;;;;;;;;;6066949;23;20198;-93
2022/01/03 23:54:37;;;;;;;11.00;5.77;;;;;;;;;;6083163;23;20192;-92
2022/01/03 23:57:42;;;;;;;12.30;6.03;;;;;;;;;;6096839;23;20169;-92
